Fergus Falls, MN

1:52 AM CDT on March 25, 2017 (GMT -0500)
Fergus Falls Municipal-Mickelson

Weather History for KFFM - October, 2012

Change the Weather History Date:

Friday, October 19, 2012

  Actual Average Record
Temperature  
Mean Temperature 40 °F -  
Max Temperature 42 °F 53 °F 87 °F (2003)
Min Temperature 39 °F 31 °F 12 °F (1972)
Degree Days  
Heating Degree Days 24    
Moisture  
Dew Point 40 °F    
Average Humidity 95    
Maximum Humidity 100    
Minimum Humidity 87    
Precipitation  
Precipitation 0.12 in - - ()
Sea Level Pressure  
Sea Level Pressure 29.66 in    
Wind  
Wind Speed 18 mph (NNW)    
Max Wind Speed 28 mph    
Max Gust Speed 34 mph    
Visibility 7 miles    
Events Rain    
Averages and records for this station are not official NWS values.
T = Trace of Precipitation, MM = Missing Value Source: NWS Daily Summary

Daily Weather History Graph

Daily Weather History Graph

Search for Another Location

Airport or City:

Trip Planner

Search our weather history database for the weather conditions in past years. The results will help you decide how hot, cold, wet, or windy it might be!

Date:

Astronomy

Oct. 19, 2012 Rise Set
Actual Time 7:48 AM CDT 6:30 PM CDT
Civil Twilight 7:17 AM CDT 7:00 PM CDT
Nautical Twilight 6:42 AM CDT 7:35 PM CDT
Astronomical Twilight 6:07 AM CDT 8:10 PM CDT
Moon 12:44 PM CDT (10/19) 9:58 PM CDT (10/19)
Length of Visible Light 11h 43m
Length of Day
10h 42m
Waxing Crescent, 24% of the Moon is Illuminated
Oct 19
Waxing Crescent
Oct 21
First Quarter
Oct 29
Full
Nov 6
Last Quarter
Nov 13
New

Hourly Weather History & Observations

Time (CDT) Temp. Windchill Dew Point Humidity Pressure Visibility Wind Dir Wind Speed Gust Speed Precip Events Conditions
12:33 AM 42.8 °F 33.3 °F 41.0 °F 93% 29.49 in 3.0 mi North 24.2 mph 34.5 mph N/A   Overcast
12:53 AM 42.8 °F 33.1 °F 41.0 °F 93% 29.50 in 4.0 mi NNW 25.3 mph 33.4 mph N/A   Overcast
1:14 AM 41.0 °F 30.9 °F 39.2 °F 93% 29.51 in 3.0 mi North 24.2 mph 29.9 mph N/A   Overcast
1:33 AM 41.0 °F 30.2 °F 39.2 °F 93% 29.51 in 4.0 mi NNW 27.6 mph 32.2 mph N/A   Overcast
1:53 AM 41.0 °F 31.4 °F 39.2 °F 93% 29.52 in 4.0 mi North 21.9 mph 32.2 mph N/A   Overcast
2:14 AM 41.0 °F 31.6 °F 39.2 °F 93% 29.53 in 4.0 mi North 20.7 mph 34.5 mph N/A   Overcast
2:33 AM 41.0 °F 31.9 °F 39.2 °F 93% 29.55 in 5.0 mi North 19.6 mph 29.9 mph N/A   Overcast
2:53 AM 41.0 °F 31.9 °F 39.2 °F 93% 29.55 in 4.0 mi North 19.6 mph 33.4 mph N/A   Overcast
3:14 AM 41.0 °F 32.2 °F 39.2 °F 93% 29.56 in 7.0 mi North 18.4 mph 29.9 mph N/A   Overcast
3:33 AM 41.0 °F 32.2 °F 39.2 °F 93% 29.56 in 5.0 mi North 18.4 mph 29.9 mph N/A   Overcast
3:53 AM 41.0 °F 32.5 °F 39.2 °F 93% 29.56 in 4.0 mi North 17.3 mph 29.9 mph N/A   Overcast
4:13 AM 41.0 °F 32.2 °F 39.2 °F 93% 29.58 in 7.0 mi North 18.4 mph 27.6 mph N/A   Overcast
4:33 AM 41.0 °F 31.9 °F 39.2 °F 93% 29.58 in 5.0 mi North 19.6 mph 31.1 mph N/A   Overcast
4:54 AM 41.0 °F 31.1 °F 39.2 °F 93% 29.59 in 4.0 mi North 23.0 mph 31.1 mph N/A   Overcast
5:13 AM 41.0 °F 31.4 °F 39.2 °F 93% 29.59 in 3.0 mi North 21.9 mph 28.8 mph N/A   Overcast
5:33 AM 41.0 °F 30.7 °F 39.2 °F 93% 29.60 in 3.0 mi NNW 25.3 mph 33.4 mph N/A   Overcast
5:54 AM 39.2 °F 29.0 °F 39.2 °F 100% 29.60 in 5.0 mi NNW 21.9 mph 33.4 mph N/A   Overcast
6:13 AM 39.2 °F 28.5 °F 39.2 °F 100% 29.61 in 5.0 mi North 24.2 mph 34.5 mph N/A   Overcast
6:33 AM 39.2 °F 28.5 °F 39.2 °F 100% 29.62 in 4.0 mi North 24.2 mph 33.4 mph N/A   Overcast
6:54 AM 39.2 °F 29.6 °F 39.2 °F 100% 29.62 in 4.0 mi North 19.6 mph 31.1 mph N/A   Overcast
7:13 AM 39.2 °F 29.3 °F 39.2 °F 100% 29.63 in 4.0 mi North 20.7 mph 31.1 mph N/A   Overcast
7:33 AM 39.2 °F 30.2 °F 39.2 °F 100% 29.63 in 5.0 mi North 17.3 mph 33.4 mph N/A   Overcast
7:54 AM 39.2 °F 28.3 °F 39.2 °F 100% 29.63 in 4.0 mi NNW 25.3 mph 32.2 mph N/A   Overcast
8:13 AM 39.2 °F 28.0 °F 39.2 °F 100% 29.65 in 7.0 mi NNW 26.5 mph 33.4 mph N/A   Overcast
8:33 AM 39.2 °F 28.5 °F 39.2 °F 100% 29.65 in 3.0 mi NNW 24.2 mph 33.4 mph N/A   Overcast
8:54 AM 39.2 °F 28.0 °F 39.2 °F 100% 29.66 in 5.0 mi North 26.5 mph 34.5 mph N/A   Overcast
9:13 AM 39.2 °F 29.0 °F 39.2 °F 100% 29.66 in 4.0 mi North 21.9 mph 29.9 mph N/A   Overcast
9:33 AM 39.2 °F 30.2 °F 37.4 °F 93% 29.67 in 5.0 mi North 17.3 mph 26.5 mph N/A Rain Light Rain
9:54 AM 39.2 °F 29.8 °F 37.4 °F 93% 29.68 in 4.0 mi North 18.4 mph 26.5 mph N/A Rain Light Rain
10:13 AM 39.2 °F 30.5 °F 39.2 °F 100% 29.68 in 3.0 mi North 16.1 mph 25.3 mph 0.02 in Rain Light Rain
10:33 AM 39.2 °F 30.5 °F 39.2 °F 100% 29.69 in 3.0 mi NNW 16.1 mph 26.5 mph 0.06 in   Overcast
10:53 AM 39.2 °F 29.8 °F 39.2 °F 100% 29.69 in 7.0 mi North 18.4 mph 25.3 mph 0.08 in Rain Light Rain
11:13 AM 39.2 °F 30.2 °F 39.2 °F 100% 29.70 in 10.0 mi NNW 17.3 mph 24.2 mph 0.01 in Rain Light Rain
11:33 AM 39.2 °F 29.6 °F 39.2 °F 100% 29.70 in 10.0 mi NNW 19.6 mph 27.6 mph 0.01 in Rain Light Rain
11:53 AM 39.2 °F 29.8 °F 39.2 °F 100% 29.70 in 10.0 mi North 18.4 mph 28.8 mph 0.01 in   Overcast
12:13 PM 39.2 °F 30.2 °F 39.2 °F 100% 29.70 in 10.0 mi NNW 17.3 mph 25.3 mph N/A   Overcast
12:33 PM 41.0 °F 33.9 °F 39.2 °F 93% 29.70 in 10.0 mi NNW 12.7 mph 21.9 mph 0.01 in   Drizzle
12:53 PM 41.0 °F 32.8 °F 39.2 °F 93% 29.70 in 10.0 mi NNW 16.1 mph 25.3 mph 0.01 in Rain Light Rain
1:13 PM 41.0 °F 32.5 °F 39.2 °F 93% 29.70 in 10.0 mi NNW 17.3 mph 23.0 mph N/A Rain Light Rain
1:33 PM 42.8 °F 35.4 °F 39.2 °F 87% 29.70 in 10.0 mi North 15.0 mph 23.0 mph 0.01 in Rain Light Rain
1:53 PM 42.8 °F 36.2 °F 39.2 °F 87% 29.70 in 10.0 mi North 12.7 mph 20.7 mph 0.02 in   Overcast
2:13 PM 42.8 °F 35.4 °F 41.0 °F 93% 29.69 in 10.0 mi North 15.0 mph 21.9 mph N/A   Overcast
2:33 PM 42.8 °F 36.6 °F 41.0 °F 93% 29.69 in 10.0 mi North 11.5 mph 19.6 mph N/A   Overcast
2:53 PM 42.8 °F 36.2 °F 41.0 °F 93% 29.69 in 10.0 mi North 12.7 mph 19.6 mph N/A   Overcast
3:13 PM 42.8 °F 36.2 °F 41.0 °F 93% 29.69 in 10.0 mi North 12.7 mph 18.4 mph N/A   Overcast
3:34 PM 42.8 °F 35.8 °F 41.0 °F 93% 29.69 in 10.0 mi NNW 13.8 mph 17.3 mph N/A   Overcast
3:53 PM 42.8 °F 37.5 °F 41.0 °F 93% 29.69 in 10.0 mi NNW 9.2 mph - N/A   Overcast
4:13 PM 42.8 °F 37.5 °F 41.0 °F 93% 29.69 in 10.0 mi NNW 9.2 mph - N/A   Overcast
4:34 PM 42.8 °F 37.5 °F 41.0 °F 93% 29.70 in 10.0 mi NNW 9.2 mph - N/A   Overcast
4:53 PM 42.8 °F 37.0 °F 41.0 °F 93% 29.70 in 10.0 mi NNW 10.4 mph - N/A   Overcast
5:13 PM 42.8 °F 37.0 °F 41.0 °F 93% 29.71 in 10.0 mi NNW 10.4 mph - N/A   Overcast
5:34 PM 42.8 °F 36.6 °F 41.0 °F 93% 29.72 in 7.0 mi NNW 11.5 mph - N/A   Overcast
5:53 PM 41.0 °F 34.7 °F 41.0 °F 100% 29.72 in 7.0 mi NW 10.4 mph - N/A   Overcast
6:13 PM 41.0 °F 34.7 °F 39.2 °F 93% 29.72 in 5.0 mi NNW 10.4 mph - N/A   Overcast
6:34 PM 41.0 °F 35.8 °F 39.2 °F 93% 29.73 in 5.0 mi NNW 8.1 mph - N/A   Overcast
6:53 PM 41.0 °F 36.4 °F 39.2 °F 93% 29.73 in 10.0 mi North 6.9 mph - N/A   Overcast
7:13 PM 41.0 °F 35.8 °F 39.2 °F 93% 29.73 in 5.0 mi NNW 8.1 mph - N/A   Overcast
7:34 PM 41.0 °F 36.4 °F 39.2 °F 93% 29.73 in 10.0 mi North 6.9 mph - N/A   Overcast
7:53 PM 41.0 °F 36.4 °F 39.2 °F 93% 29.73 in 10.0 mi NNW 6.9 mph - N/A   Overcast
8:13 PM 41.0 °F 35.8 °F 39.2 °F 93% 29.73 in 10.0 mi NNW 8.1 mph - N/A   Overcast
8:34 PM 41.0 °F 35.8 °F 39.2 °F 93% 29.73 in 1.8 mi North 8.1 mph - N/A   Overcast
8:53 PM 41.0 °F 38.0 °F 39.2 °F 93% 29.73 in 7.0 mi North 4.6 mph - N/A   Overcast
9:13 PM 41.0 °F 39.0 °F 39.2 °F 93% 29.73 in 7.0 mi NNE 3.5 mph - N/A   Overcast
9:33 PM 41.0 °F - 39.2 °F 93% 29.73 in 10.0 mi Calm Calm - N/A   Overcast
9:53 PM 41.0 °F - 39.2 °F 93% 29.73 in 10.0 mi Calm Calm - N/A   Overcast
10:13 PM 41.0 °F 38.0 °F 39.2 °F 93% 29.74 in 10.0 mi WNW 4.6 mph - N/A   Overcast
10:34 PM 41.0 °F 36.4 °F 39.2 °F 93% 29.73 in 10.0 mi WNW 6.9 mph - N/A   Overcast
10:53 PM 41.0 °F 38.0 °F 39.2 °F 93% 29.73 in 7.0 mi WNW 4.6 mph - N/A   Overcast
11:13 PM 39.2 °F 37.0 °F 39.2 °F 100% 29.73 in 7.0 mi NW 3.5 mph - N/A   Overcast
11:33 PM 41.0 °F - 39.2 °F 93% 29.73 in 10.0 mi Calm Calm - N/A   Overcast
11:53 PM 41.0 °F 39.0 °F 39.2 °F 93% 29.73 in 10.0 mi NW 3.5 mph - N/A   Overcast